Flight Track Log - Related Links

Times and Time Zones

All times are in EDT time to prevent confusion due to time zone crossing. See the N609C flight status page for this flight to view local times or setup timezone preferences in your user account.

Time Position Orientation Groundspeed Altitude Reporting Facility
EDT Latitude Longitude Course Direction KTS MPH feet Rate Location/Type
Mon 04:53:01 PM 43.5228 -84.2928 265° West 135 155 5,700  Level Chicago Center
Mon 04:54:00 PM 43.5023 -84.4082 263° West  Level FlightAware Approximate
Mon 04:54:03 PM 43.5183 -84.3364 262° West 117 135 6,300  Level Chicago Center
Mon 04:55:00 PM 43.5000 -84.4651 270° West  Level FlightAware Approximate
Mon 04:55:05 PM 43.5153 -84.3839 265° West 120 138 7,000  Level Chicago Center
Mon 04:56:00 PM 43.4967 -84.5221 265° West  Level FlightAware Approximate
Mon 04:56:07 PM 43.5114 -84.4286 263° West 120 138 7,600  Level Chicago Center
Mon 04:57:00 PM 43.4932 -84.5790 265° West  Level FlightAware Approximate
Mon 04:57:09 PM 43.5106 -84.4739 269° West 119 137 8,000  Level Chicago Center
Mon 04:58:00 PM 43.4897 -84.6359 265° West  Level FlightAware Approximate
Mon 04:58:11 PM 43.5044 -84.5228 260° West 127 146 8,100  Level Chicago Center
Mon 04:59:13 PM 43.5019 -84.5931 267° West 148 170 8,100  Level Chicago Center
Mon 05:00:15 PM 43.4981 -84.6508 265° West 151 174 8,100  Level Chicago Center
Mon 05:01:17 PM 43.4950 -84.7094 266° West 154 177 8,100  Level Chicago Center
Mon 05:02:19 PM 43.4919 -84.7694 266° West 156 180 8,100  Level Chicago Center
Mon 05:03:21 PM 43.4908 -84.8275 269° West 155 178 8,100  Level Chicago Center
Mon 05:04:24 PM 43.4881 -84.8958 267° West 150 173 8,100  Level Chicago Center
Mon 05:05:26 PM 43.4850 -84.9553 266° West 154 177 8,100  Level Chicago Center
Mon 05:06:28 PM 43.4800 -85.0147 263° West 156 180 8,100  Level Chicago Center
Mon 05:07:30 PM 43.4758 -85.0719 264° West 154 177 8,100  Level Chicago Center
Mon 05:08:32 PM 43.4714 -85.1303 264° West 154 177 8,100  Level Chicago Center
Mon 05:09:34 PM 43.4681 -85.1894 266° West 155 178 8,100  Level Chicago Center
Mon 05:10:36 PM 43.4642 -85.2600 266° West 155 178 8,100  Level Chicago Center
Mon 05:11:38 PM 43.4603 -85.3181 265° West 154 177 8,100  Level Chicago Center
Mon 05:12:40 PM 43.4558 -85.3761 264° West 153 176 8,100  Level Chicago Center
Mon 05:13:42 PM 43.4517 -85.4344 264° West 155 178 8,100  Level Chicago Center
Mon 05:14:44 PM 43.4489 -85.4931 266° West 155 178 8,100  Level Chicago Center
Mon 05:15:46 PM 43.4444 -85.5517 264° West 155 178 8,100  Level Chicago Center
Mon 05:16:48 PM 43.4392 -85.6239 264° West 158 182 8,100  Level Chicago Center
Mon 05:17:50 PM 43.4342 -85.6836 263° West 158 182 8,100  Level Chicago Center
Mon 05:18:53 PM 43.4292 -85.7428 263° West 157 181 8,100  Level Chicago Center
Mon 05:19:55 PM 43.4247 -85.8014 264° West 156 180 8,100  Level Chicago Center
Mon 05:20:57 PM 43.4214 -85.8611 266° West 157 181 8,100  Level Chicago Center
Mon 05:21:59 PM 43.4150 -85.9319 263° West 157 181 8,100  Level Chicago Center
Mon 05:23:01 PM 43.4114 -85.9903 265° West 156 180 8,100  Level Chicago Center
Mon 05:24:03 PM 43.4069 -86.0478 264° West 152 175 8,100  Level Chicago Center
Mon 05:25:05 PM 43.4019 -86.1069 263° West 155 178 8,100  Level Chicago Center
Mon 05:26:07 PM 43.3975 -86.1647 264° West 154 177 8,100  Level Chicago Center
Mon 05:27:09 PM 43.3928 -86.2361 265° West 157 181 8,100  Level Chicago Center
Mon 05:28:11 PM 43.3878 -86.2958 263° West 159 183 8,100  Level Chicago Center
Mon 05:29:13 PM 43.3833 -86.3558 264° West 159 183 8,100  Level Chicago Center
Mon 05:30:15 PM 43.3794 -86.4142 265° West 157 181 8,100  Level Chicago Center
Mon 05:31:18 PM 43.3750 -86.4739 264° West 159 183 8,100  Level Chicago Center
Mon 05:32:20 PM 43.3697 -86.5322 263° West 155 178 8,100  Level Chicago Center
Mon 05:33:22 PM 43.3650 -86.6053 265° West 160 184 8,100  Level Chicago Center
Mon 05:34:24 PM 43.3600 -86.6642 263° West 156 180 8,100  Level Chicago Center
Mon 05:35:26 PM 43.3556 -86.7242 264° West 159 183 8,100  Level Chicago Center
Mon 05:36:28 PM 43.3492 -86.7844 262° West 160 184 8,100  Level Chicago Center
Mon 05:37:30 PM 43.3431 -86.8444 262° West 160 184 8,100  Level Chicago Center
Mon 05:38:32 PM 43.3375 -86.9153 264° West 156 180 8,100  Level Chicago Center
Mon 05:39:34 PM 43.3333 -86.9753 265° West 157 181 8,100  Level Chicago Center
Mon 05:40:36 PM 43.3300 -87.0333 266° West 155 178 8,100  Level Chicago Center
Mon 05:41:38 PM 43.3261 -87.0925 265° West 155 178 8,100  Level Chicago Center
Mon 05:42:40 PM 43.3206 -87.1514 263° West 156 180 8,100  Level Chicago Center
Mon 05:43:42 PM 43.3142 -87.2103 262° West 156 180 8,100  Level Chicago Center
Mon 05:44:45 PM 43.3081 -87.2811 263° West 156 180 8,100  Level Chicago Center
Mon 05:45:47 PM 43.3014 -87.3397 261° West 156 180 8,100  Level Chicago Center
Mon 05:46:49 PM 43.2950 -87.4058 262° West 159 183 8,100  Level Chicago Center
Mon 05:47:51 PM 43.2903 -87.4656 264° West 158 182 8,100  Level Chicago Center
Mon 05:48:53 PM 43.2856 -87.5253 264° West 157 181 8,100  Level Chicago Center
Mon 05:49:55 PM 43.2814 -87.5853 265° West 157 181 8,100  Level Chicago Center
Mon 05:50:57 PM 43.2764 -87.6453 263° West 157 181 8,100 -290 Level Chicago Center
Mon 05:51:59 PM 43.2700 -87.7197 263° West 167 192 7,500 -484 Descending Chicago Center
Mon 05:53:01 PM 43.2639 -87.7858 263° West 172 198 7,100 -435 Descending Chicago Center
Mon 05:54:03 PM 43.2581 -87.8533 263° West 177 204 6,600 -435 Descending Chicago Center
Mon 05:55:05 PM 43.2511 -87.9194 262° West 176 203 6,200 -435 Descending Chicago Center
Mon 05:56:07 PM 43.2453 -87.9872 263° West 177 204 5,700 -581 Descending Chicago Center
Mon 05:57:09 PM 43.2389 -88.0544 263° West 177 204 5,000 -726 Descending Chicago Center
Mon 05:58:11 PM 43.2244 -88.1347 256° West 182 209 4,200 -480 Descending Chicago Center
Mon 05:59:14 PM 43.2206 -88.1978 265° West 173 199 4,000 -96 Descending Chicago Center
Mon 06:00:16 PM 43.2153 -88.2486 262° West 166 191 4,000  Level Chicago Center

Login

Don't have an account? Register now (free) for customized features, flight alerts, and more!